createdAt,value
2022-08-16T00:02:31.650Z,20.17
2022-08-16T00:05:00.100Z,19.93
2022-08-16T00:07:29.442Z,20.06
2022-08-16T00:09:57.917Z,19.99
2022-08-16T00:12:30.479Z,19.88
2022-08-16T00:14:59.070Z,19.73
2022-08-16T00:17:26.516Z,19.65
2022-08-16T00:19:55.631Z,19.63
2022-08-16T00:22:24.919Z,19.66
2022-08-16T00:24:54.402Z,19.80
2022-08-16T00:27:22.921Z,19.67
2022-08-16T00:30:08.303Z,19.76
2022-08-16T00:32:38.487Z,19.51
2022-08-16T00:35:13.287Z,19.47
2022-08-16T00:37:58.896Z,19.52
2022-08-16T00:40:33.995Z,19.49
2022-08-16T00:43:04.421Z,19.39
2022-08-16T00:46:32.975Z,19.32
2022-08-16T00:48:56.332Z,19.39
2022-08-16T00:51:25.315Z,19.33
2022-08-16T00:53:58.327Z,19.33
2022-08-16T00:56:57.573Z,19.33
2022-08-16T00:59:17.208Z,19.32
2022-08-16T01:01:45.482Z,19.28
2022-08-16T01:04:29.177Z,19.30
2022-08-16T01:07:01.189Z,18.91
2022-08-16T01:09:33.668Z,18.90
2022-08-16T01:12:02.567Z,18.96
2022-08-16T01:14:33.575Z,18.89
2022-08-16T01:17:01.403Z,18.79
2022-08-16T01:19:34.274Z,18.83
2022-08-16T01:22:49.543Z,18.79
2022-08-16T01:25:18.597Z,18.82
2022-08-16T01:27:54.861Z,19.05
2022-08-16T01:30:32.082Z,18.92
2022-08-16T01:33:14.610Z,18.76
2022-08-16T01:35:52.557Z,18.82
2022-08-16T01:38:40.019Z,18.76
2022-08-16T01:41:19.851Z,18.77
2022-08-16T01:43:54.312Z,18.67
2022-08-16T01:46:39.601Z,18.60
2022-08-16T01:49:43.156Z,18.49
2022-08-16T01:52:29.830Z,18.58
2022-08-16T01:54:58.095Z,18.52
2022-08-16T01:57:27.253Z,18.52
2022-08-16T01:59:54.588Z,18.32
2022-08-16T02:02:27.317Z,18.42
2022-08-16T02:04:56.403Z,18.46
2022-08-16T02:07:25.534Z,18.32
2022-08-16T02:09:57.157Z,18.21
2022-08-16T02:12:39.875Z,18.16
2022-08-16T02:15:15.681Z,18.23
2022-08-16T02:17:43.382Z,18.16
2022-08-16T02:20:12.049Z,18.09
2022-08-16T02:22:39.622Z,17.99
2022-08-16T02:25:14.775Z,18.08
2022-08-16T02:27:44.199Z,18.12
2022-08-16T02:30:35.690Z,18.21
2022-08-16T02:33:03.957Z,18.11
2022-08-16T02:35:31.469Z,18.02
2022-08-16T02:38:01.683Z,18.04
2022-08-16T02:40:35.664Z,17.92
2022-08-16T02:43:02.911Z,17.85
2022-08-16T02:45:29.750Z,17.74
2022-08-16T02:48:00.409Z,17.67
2022-08-16T02:51:04.119Z,17.78
2022-08-16T02:53:18.182Z,17.58
2022-08-16T02:55:45.261Z,17.67
2022-08-16T02:58:17.623Z,17.58
2022-08-16T03:00:45.594Z,17.60
2022-08-16T03:03:18.251Z,17.70
2022-08-16T03:05:50.060Z,17.45
2022-08-16T03:08:50.465Z,17.68
2022-08-16T03:11:16.672Z,17.67
2022-08-16T03:13:51.374Z,17.69
2022-08-16T03:16:36.631Z,17.73
2022-08-16T03:19:07.368Z,17.71
2022-08-16T03:21:37.473Z,17.57
2022-08-16T03:24:28.690Z,17.47
2022-08-16T03:26:59.954Z,17.53
2022-08-16T03:29:32.381Z,17.57
2022-08-16T03:32:01.218Z,17.52
2022-08-16T03:34:29.209Z,17.55
2022-08-16T03:36:57.675Z,17.63
2022-08-16T03:39:24.589Z,17.38
2022-08-16T03:41:59.705Z,17.36
2022-08-16T03:44:44.646Z,17.48
2022-08-16T03:47:19.199Z,17.52
2022-08-16T03:49:51.217Z,17.47
2022-08-16T03:52:23.714Z,17.39
2022-08-16T03:54:57.902Z,17.36
2022-08-16T03:57:31.645Z,17.10
2022-08-16T04:00:20.288Z,17.20
2022-08-16T04:03:07.720Z,17.18
2022-08-16T04:05:40.464Z,17.10
2022-08-16T04:08:23.099Z,17.23
2022-08-16T04:10:53.619Z,17.35
2022-08-16T04:14:00.155Z,17.20
2022-08-16T04:16:09.587Z,17.09
2022-08-16T04:18:54.593Z,17.21
2022-08-16T04:21:29.834Z,17.31
2022-08-16T04:23:56.798Z,17.16
2022-08-16T04:26:23.741Z,17.09
2022-08-16T04:28:53.659Z,16.91
2022-08-16T04:31:24.669Z,16.95
2022-08-16T04:33:51.601Z,17.06
2022-08-16T04:36:20.532Z,17.21
2022-08-16T04:38:50.151Z,17.21
2022-08-16T04:41:19.432Z,17.10
2022-08-16T04:44:00.478Z,17.03
2022-08-16T04:47:01.186Z,17.11
2022-08-16T04:49:14.379Z,17.18
2022-08-16T04:51:41.567Z,17.20
2022-08-16T04:54:09.286Z,17.27
2022-08-16T04:56:42.870Z,17.38
2022-08-16T04:59:17.015Z,17.40
2022-08-16T05:01:58.277Z,17.47
2022-08-16T05:04:26.235Z,17.55
2022-08-16T05:06:57.263Z,17.63
2022-08-16T05:09:24.427Z,17.69
2022-08-16T05:11:51.610Z,17.79
2022-08-16T05:14:20.219Z,17.91
2022-08-16T05:17:05.925Z,18.00
2022-08-16T05:19:36.230Z,18.07
2022-08-16T05:22:03.841Z,18.19
2022-08-16T05:24:31.613Z,18.24
2022-08-16T05:26:58.431Z,18.30
2022-08-16T05:29:57.707Z,18.34
2022-08-16T05:32:32.883Z,18.43
2022-08-16T05:35:00.099Z,18.54
2022-08-16T05:37:28.759Z,18.61
2022-08-16T05:40:07.850Z,18.71
2022-08-16T05:42:36.000Z,18.78
2022-08-16T05:45:06.893Z,18.92
2022-08-16T05:47:33.873Z,19.01
2022-08-16T05:50:19.158Z,19.08
2022-08-16T05:52:46.606Z,19.19
2022-08-16T05:55:13.774Z,19.32
2022-08-16T05:57:40.540Z,19.39
2022-08-16T06:00:12.075Z,19.47
2022-08-16T06:02:38.909Z,19.52
2022-08-16T06:05:07.087Z,19.53
2022-08-16T06:07:38.711Z,19.70
2022-08-16T06:10:07.294Z,19.78
2022-08-16T06:12:36.913Z,19.79
2022-08-16T06:15:10.090Z,19.92
2022-08-16T06:17:42.929Z,19.89
2022-08-16T06:20:24.205Z,20.00
2022-08-16T06:22:59.074Z,20.02
2022-08-16T06:25:36.808Z,20.03
2022-08-16T06:28:09.422Z,20.14
2022-08-16T06:30:43.931Z,20.25
2022-08-16T06:33:22.229Z,20.42
2022-08-16T06:35:50.776Z,20.51
2022-08-16T06:38:33.496Z,20.61
2022-08-16T06:41:13.654Z,20.72
2022-08-16T06:43:41.156Z,20.88
2022-08-16T06:46:10.873Z,20.77
2022-08-16T06:48:43.158Z,21.04
2022-08-16T06:51:10.478Z,21.06
2022-08-16T06:53:37.313Z,21.24
2022-08-16T06:56:14.241Z,21.22
2022-08-16T06:58:51.625Z,21.33
2022-08-16T07:01:24.609Z,21.46
2022-08-16T07:04:10.397Z,21.38
2022-08-16T07:06:40.571Z,21.51
2022-08-16T07:09:11.551Z,21.74
2022-08-16T07:11:48.089Z,21.80
2022-08-16T07:14:25.148Z,21.88
2022-08-16T07:16:58.378Z,21.89
2022-08-16T07:20:01.278Z,22.01
2022-08-16T07:22:37.942Z,22.17
2022-08-16T07:25:02.227Z,22.22
2022-08-16T07:27:29.269Z,22.38
2022-08-16T07:30:00.782Z,22.51
2022-08-16T07:32:29.647Z,22.58
2022-08-16T07:34:58.839Z,22.71
2022-08-16T07:37:25.927Z,22.79
2022-08-16T07:39:54.666Z,23.00
2022-08-16T07:42:28.255Z,23.02
2022-08-16T07:45:02.499Z,23.13
2022-08-16T07:47:31.283Z,23.15
2022-08-16T07:49:59.280Z,23.10
2022-08-16T07:52:29.632Z,23.19
2022-08-16T07:54:57.909Z,23.27
2022-08-16T07:57:24.988Z,23.44
2022-08-16T07:59:52.172Z,23.39
2022-08-16T08:02:20.069Z,23.59
2022-08-16T08:04:48.530Z,23.55
2022-08-16T08:07:16.508Z,23.55
2022-08-16T08:09:44.204Z,23.56
2022-08-16T08:12:32.254Z,23.86
2022-08-16T08:15:00.614Z,24.05
2022-08-16T08:17:42.538Z,23.99
2022-08-16T08:20:26.108Z,24.24
2022-08-16T08:23:01.025Z,24.39
2022-08-16T08:25:51.985Z,24.35
2022-08-16T08:28:18.056Z,24.48
2022-08-16T08:30:52.315Z,24.59
2022-08-16T08:33:27.806Z,24.73
2022-08-16T08:36:02.268Z,24.82
2022-08-16T08:38:43.643Z,24.87
2022-08-16T08:41:18.335Z,25.07
2022-08-16T08:43:47.122Z,25.17
2022-08-16T08:46:21.708Z,25.33
2022-08-16T08:48:59.772Z,25.34
2022-08-16T08:51:31.868Z,25.14
2022-08-16T08:54:09.073Z,25.33
2022-08-16T08:56:45.346Z,25.55
2022-08-16T08:59:19.908Z,25.53
2022-08-16T09:01:57.103Z,25.40
2022-08-16T09:04:26.549Z,25.56
2022-08-16T09:06:54.121Z,25.68
2022-08-16T09:09:22.274Z,25.80
2022-08-16T09:12:04.189Z,25.99
2022-08-16T09:14:35.046Z,26.05
2022-08-16T09:17:11.831Z,26.28
2022-08-16T09:19:55.183Z,26.25
2022-08-16T09:22:23.235Z,26.18
2022-08-16T09:24:53.160Z,26.29
2022-08-16T09:27:25.333Z,26.40
2022-08-16T09:29:59.770Z,26.49
2022-08-16T09:32:30.545Z,26.64
2022-08-16T09:34:58.821Z,26.70
2022-08-16T09:37:29.454Z,26.57
2022-08-16T09:40:01.006Z,26.41
2022-08-16T09:42:29.037Z,26.46
2022-08-16T09:45:12.491Z,26.45
2022-08-16T09:47:56.538Z,26.62
2022-08-16T09:50:33.241Z,26.59
2022-08-16T09:53:15.346Z,26.23
2022-08-16T09:55:49.615Z,26.14
2022-08-16T09:58:41.692Z,25.97
2022-08-16T10:01:14.034Z,26.24
2022-08-16T10:04:01.547Z,26.24
2022-08-16T10:06:33.358Z,26.09
2022-08-16T10:09:05.384Z,26.12
2022-08-16T10:11:55.576Z,26.31
2022-08-16T10:14:24.775Z,26.38
2022-08-16T10:17:02.858Z,26.62
2022-08-16T10:19:31.908Z,26.57
2022-08-16T10:21:59.721Z,26.92
2022-08-16T10:24:37.215Z,26.95
2022-08-16T10:27:25.602Z,26.82
2022-08-16T10:29:59.417Z,26.87
2022-08-16T10:32:26.532Z,27.11
2022-08-16T10:34:58.377Z,27.27
2022-08-16T10:37:36.300Z,27.49
2022-08-16T10:40:28.390Z,27.41
2022-08-16T10:42:56.061Z,27.66
2022-08-16T10:45:22.985Z,27.86
2022-08-16T10:47:51.769Z,27.84
2022-08-16T10:50:30.468Z,27.92
2022-08-16T10:52:59.188Z,27.85
2022-08-16T10:55:44.463Z,27.88
2022-08-16T10:58:16.931Z,28.04
2022-08-16T11:00:46.287Z,28.19
2022-08-16T11:06:07.444Z,28.27
2022-08-16T11:08:40.732Z,28.30
2022-08-16T11:11:19.136Z,28.53
2022-08-16T11:14:06.048Z,28.46
2022-08-16T11:19:23.022Z,28.63
2022-08-16T11:24:42.572Z,28.62
2022-08-16T11:27:21.237Z,28.85
2022-08-16T11:29:53.514Z,28.83
2022-08-16T11:32:31.519Z,28.86
2022-08-16T11:35:13.285Z,28.64
2022-08-16T11:40:38.365Z,29.06
2022-08-16T11:43:06.745Z,29.13
2022-08-16T11:45:37.093Z,29.36
2022-08-16T11:48:05.155Z,29.23
2022-08-16T11:50:33.873Z,29.51
2022-08-16T11:53:05.638Z,29.62
2022-08-16T11:55:38.145Z,29.79
2022-08-16T11:58:06.898Z,29.67
2022-08-16T12:00:50.485Z,29.77
2022-08-16T12:03:29.701Z,29.62
2022-08-16T12:06:10.885Z,29.76
2022-08-16T12:08:39.111Z,29.91
2022-08-16T12:11:06.250Z,29.95
2022-08-16T12:13:33.988Z,29.96
2022-08-16T12:16:01.154Z,30.08
2022-08-16T12:18:27.886Z,30.10
2022-08-16T12:20:55.476Z,30.07
2022-08-16T12:23:25.274Z,30.21
2022-08-16T12:25:52.544Z,30.11
2022-08-16T12:28:36.641Z,30.34
2022-08-16T12:31:06.740Z,30.12
2022-08-16T12:33:44.553Z,30.00
2022-08-16T12:36:14.255Z,29.76
2022-08-16T12:38:48.025Z,29.51
2022-08-16T12:41:15.945Z,29.48
2022-08-16T12:43:52.289Z,29.51
2022-08-16T12:46:19.073Z,29.62
2022-08-16T12:48:58.166Z,29.66
2022-08-16T12:51:59.260Z,29.80
2022-08-16T12:54:27.897Z,29.92
2022-08-16T12:56:55.530Z,29.87
2022-08-16T12:59:23.680Z,29.54
2022-08-16T13:01:58.102Z,29.59
2022-08-16T13:04:26.317Z,29.55
2022-08-16T13:06:53.657Z,29.47
2022-08-16T13:09:26.179Z,29.24
2022-08-16T13:12:03.615Z,29.10
2022-08-16T13:14:38.206Z,28.85
2022-08-16T13:17:08.314Z,28.70
2022-08-16T13:20:05.903Z,28.85
2022-08-16T13:22:24.407Z,28.82
2022-08-16T13:24:52.647Z,28.82
2022-08-16T13:27:20.842Z,28.81
2022-08-16T13:30:21.863Z,28.73
2022-08-16T13:32:54.230Z,28.74
2022-08-16T13:35:22.575Z,28.67
2022-08-16T13:37:58.459Z,28.69
2022-08-16T13:40:25.366Z,28.54
2022-08-16T13:42:55.368Z,28.54
2022-08-16T13:45:25.938Z,28.76
2022-08-16T13:47:53.860Z,28.84
2022-08-16T13:50:31.209Z,28.94
2022-08-16T13:53:07.889Z,29.37
2022-08-16T13:55:35.363Z,29.40
2022-08-16T13:58:34.810Z,29.64
2022-08-16T14:00:54.590Z,29.79
2022-08-16T14:03:21.979Z,29.92
2022-08-16T14:05:52.924Z,30.15
2022-08-16T14:08:23.877Z,30.42
2022-08-16T14:10:53.683Z,30.38
2022-08-16T14:13:21.695Z,30.24
2022-08-16T14:15:49.102Z,30.14
2022-08-16T14:18:20.022Z,30.02
2022-08-16T14:20:48.653Z,30.11
2022-08-16T14:23:16.408Z,29.81
2022-08-16T14:25:54.401Z,30.04
2022-08-16T14:28:25.875Z,29.97
2022-08-16T14:30:53.602Z,30.32
2022-08-16T14:33:20.556Z,30.40
2022-08-16T14:35:50.321Z,30.54
2022-08-16T14:38:23.985Z,30.76
2022-08-16T14:40:55.101Z,30.93
2022-08-16T14:43:23.127Z,30.91
2022-08-16T14:45:50.340Z,30.94
2022-08-16T14:48:25.158Z,31.16
2022-08-16T14:50:53.050Z,30.76
2022-08-16T14:53:19.840Z,30.75
2022-08-16T14:55:48.450Z,30.41
2022-08-16T14:58:19.317Z,30.34
2022-08-16T15:00:50.638Z,30.41
2022-08-16T15:03:19.000Z,30.67
2022-08-16T15:05:48.807Z,30.75
2022-08-16T15:08:21.219Z,30.95
2022-08-16T15:11:03.165Z,31.20
2022-08-16T15:13:30.032Z,31.38
2022-08-16T15:16:02.238Z,31.24
2022-08-16T15:18:31.798Z,31.29
2022-08-16T15:21:04.167Z,31.39
2022-08-16T15:23:34.042Z,31.40
2022-08-16T15:26:03.449Z,31.62
2022-08-16T15:28:32.839Z,31.35
2022-08-16T15:31:04.714Z,31.32
2022-08-16T15:33:35.941Z,31.38
2022-08-16T15:36:07.725Z,31.11
2022-08-16T15:39:02.667Z,31.02
2022-08-16T15:41:43.069Z,31.24
2022-08-16T15:44:21.189Z,31.21
2022-08-16T15:46:56.134Z,31.25
2022-08-16T15:49:34.357Z,31.35
2022-08-16T15:52:10.508Z,31.55
2022-08-16T15:54:51.433Z,31.06
2022-08-16T15:57:22.375Z,30.65
2022-08-16T15:59:52.742Z,30.63
2022-08-16T16:02:29.227Z,30.46
2022-08-16T16:05:00.644Z,30.32
2022-08-16T16:07:30.358Z,30.25
2022-08-16T16:09:59.400Z,30.02
2022-08-16T16:15:16.925Z,30.00
2022-08-16T16:17:44.182Z,30.23
2022-08-16T16:20:18.641Z,30.34
2022-08-16T16:22:46.769Z,30.38
2022-08-16T16:25:16.101Z,30.33
2022-08-16T16:27:45.220Z,30.15
2022-08-16T16:30:32.866Z,30.09
2022-08-16T16:33:02.322Z,30.45
2022-08-16T16:35:30.819Z,30.26
2022-08-16T16:37:59.802Z,30.56
2022-08-16T16:40:32.554Z,30.51
2022-08-16T16:43:00.440Z,30.67
2022-08-16T16:45:33.325Z,30.56
2022-08-16T16:48:12.615Z,30.31
2022-08-16T16:50:44.574Z,30.12
2022-08-16T16:53:17.481Z,29.97
2022-08-16T16:55:47.723Z,29.87
2022-08-16T16:58:38.635Z,29.74
2022-08-16T17:01:08.345Z,29.53
2022-08-16T17:03:35.715Z,29.48
2022-08-16T17:06:09.453Z,29.38
2022-08-16T17:08:40.788Z,29.32
2022-08-16T17:11:12.780Z,29.31
2022-08-16T17:13:40.225Z,29.23
2022-08-16T17:16:09.432Z,29.22
2022-08-16T17:19:17.321Z,29.21
2022-08-16T17:21:36.795Z,29.15
2022-08-16T17:24:18.389Z,29.03
2022-08-16T17:26:49.189Z,28.92
2022-08-16T17:29:23.777Z,28.74
2022-08-16T17:32:33.218Z,28.59
2022-08-16T17:34:50.505Z,28.50
2022-08-16T17:37:17.976Z,28.45
2022-08-16T17:40:00.198Z,28.50
2022-08-16T17:42:30.850Z,28.35
2022-08-16T17:44:57.592Z,28.20
2022-08-16T17:47:24.433Z,28.09
2022-08-16T17:49:51.296Z,27.89
2022-08-16T17:52:18.261Z,27.94
2022-08-16T17:54:45.381Z,27.96
2022-08-16T17:57:12.815Z,27.90
2022-08-16T17:59:41.310Z,27.72
2022-08-16T18:02:42.066Z,27.60
2022-08-16T18:04:56.095Z,27.55
2022-08-16T18:07:22.983Z,27.44
2022-08-16T18:09:52.275Z,27.41
2022-08-16T18:12:54.323Z,27.46
2022-08-16T18:15:14.297Z,27.36
2022-08-16T18:17:42.036Z,27.23
2022-08-16T18:20:28.840Z,27.22
2022-08-16T18:23:03.576Z,27.17
2022-08-16T18:25:30.429Z,27.04
2022-08-16T18:27:57.291Z,26.91
2022-08-16T18:30:24.371Z,26.81
2022-08-16T18:32:51.746Z,26.76
2022-08-16T18:35:20.006Z,26.64
2022-08-16T18:37:47.431Z,26.67
2022-08-16T18:40:15.861Z,26.61
2022-08-16T18:43:00.993Z,26.49
2022-08-16T18:45:35.614Z,26.39
2022-08-16T18:48:05.237Z,26.37
2022-08-16T18:50:58.906Z,26.26
2022-08-16T18:53:20.940Z,26.12
2022-08-16T18:55:48.915Z,26.01
2022-08-16T18:58:16.504Z,25.65
2022-08-16T19:00:56.577Z,25.67
2022-08-16T19:03:31.762Z,25.68
2022-08-16T19:06:02.993Z,25.64
2022-08-16T19:08:30.209Z,25.49
2022-08-16T19:10:56.984Z,25.27
2022-08-16T19:13:26.771Z,25.25
2022-08-16T19:15:56.023Z,25.20
2022-08-16T19:18:23.561Z,25.16
2022-08-16T19:20:51.356Z,25.01
2022-08-16T19:23:21.036Z,25.06
2022-08-16T19:25:54.421Z,25.05
2022-08-16T19:28:49.226Z,24.83
2022-08-16T19:31:21.250Z,24.76
2022-08-16T19:33:53.683Z,24.75
2022-08-16T19:36:33.976Z,24.68
2022-08-16T19:39:11.463Z,24.60
2022-08-16T19:41:40.846Z,24.46
2022-08-16T19:44:07.978Z,24.40
2022-08-16T19:46:35.276Z,24.32
2022-08-16T19:49:02.466Z,24.27
2022-08-16T19:51:29.581Z,24.13
2022-08-16T19:53:56.296Z,24.12
2022-08-16T19:56:24.766Z,24.22
2022-08-16T19:59:17.401Z,24.08
2022-08-16T20:01:42.300Z,24.07
2022-08-16T20:04:12.877Z,23.92
2022-08-16T20:06:41.210Z,23.87
2022-08-16T20:09:08.330Z,23.72
2022-08-16T20:11:37.393Z,23.63
2022-08-16T20:14:04.656Z,23.60
2022-08-16T20:16:31.779Z,23.52
2022-08-16T20:18:59.065Z,23.51
2022-08-16T20:21:26.293Z,23.38
2022-08-16T20:24:01.291Z,23.26
2022-08-16T20:26:37.476Z,23.30
2022-08-16T20:29:04.297Z,23.18
2022-08-16T20:31:31.265Z,23.20
2022-08-16T20:33:58.342Z,23.08
2022-08-16T20:36:25.663Z,22.86
2022-08-16T20:38:52.975Z,22.81
2022-08-16T20:41:22.487Z,22.62
2022-08-16T20:43:50.696Z,22.64
2022-08-16T20:46:21.944Z,22.55
2022-08-16T20:48:48.838Z,22.61
2022-08-16T20:51:16.473Z,22.71
2022-08-16T20:53:44.549Z,22.61
2022-08-16T20:56:12.540Z,22.49
2022-08-16T20:58:39.570Z,22.46
2022-08-16T21:01:07.379Z,22.42
2022-08-16T21:03:34.923Z,22.38
2022-08-16T21:06:02.634Z,22.37
2022-08-16T21:08:53.183Z,22.45
2022-08-16T21:11:17.026Z,22.44
2022-08-16T21:13:43.895Z,22.40
2022-08-16T21:16:10.925Z,22.24
2022-08-16T21:18:37.632Z,22.01
2022-08-16T21:21:04.739Z,21.93
2022-08-16T21:23:31.572Z,21.84
2022-08-16T21:25:59.801Z,21.71
2022-08-16T21:28:36.783Z,21.74
2022-08-16T21:31:09.381Z,21.76
2022-08-16T21:33:36.369Z,21.71
2022-08-16T21:36:03.862Z,21.69
2022-08-16T21:38:31.160Z,21.75
2022-08-16T21:40:59.645Z,21.74
2022-08-16T21:43:32.657Z,21.41
2022-08-16T21:46:04.547Z,21.48
2022-08-16T21:48:35.968Z,21.50
2022-08-16T21:51:05.949Z,21.45
2022-08-16T21:53:33.407Z,21.16
2022-08-16T21:56:01.421Z,21.27
2022-08-16T21:58:29.229Z,21.24
2022-08-16T22:00:56.289Z,21.27
2022-08-16T22:03:23.708Z,21.31
2022-08-16T22:06:12.119Z,21.23
2022-08-16T22:08:48.028Z,21.13
2022-08-16T22:11:22.928Z,21.11
2022-08-16T22:13:57.723Z,21.03
2022-08-16T22:16:27.324Z,20.82
2022-08-16T22:18:54.317Z,20.79
2022-08-16T22:21:21.377Z,20.64
2022-08-16T22:23:57.820Z,20.69
2022-08-16T22:26:34.770Z,20.75
2022-08-16T22:29:04.696Z,20.75
2022-08-16T22:31:32.489Z,20.77
2022-08-16T22:33:59.621Z,20.77
2022-08-16T22:36:28.091Z,20.65
2022-08-16T22:38:58.256Z,20.66
2022-08-16T22:41:27.476Z,20.51
2022-08-16T22:43:54.230Z,20.49
2022-08-16T22:46:21.182Z,20.61
2022-08-16T22:48:51.348Z,20.50
2022-08-16T22:51:22.975Z,20.26
2022-08-16T22:53:49.947Z,20.09
2022-08-16T22:56:17.776Z,20.11
2022-08-16T22:58:45.469Z,20.12
2022-08-16T23:01:13.714Z,20.20
2022-08-16T23:03:41.473Z,20.14
2022-08-16T23:06:08.645Z,20.24
2022-08-16T23:08:40.312Z,20.25
2022-08-16T23:11:15.394Z,20.30
2022-08-16T23:13:51.486Z,20.18
2022-08-16T23:16:32.333Z,20.05
2022-08-16T23:19:03.567Z,19.98
2022-08-16T23:21:30.847Z,20.05
2022-08-16T23:23:57.651Z,19.98
2022-08-16T23:26:44.304Z,19.98
2022-08-16T23:29:15.880Z,19.94
2022-08-16T23:31:50.696Z,19.71
2022-08-16T23:34:20.813Z,19.79
2022-08-16T23:36:47.572Z,19.78
2022-08-16T23:39:14.656Z,19.91
2022-08-16T23:41:41.544Z,19.83
2022-08-16T23:44:42.136Z,19.76
2022-08-16T23:46:55.958Z,19.69
2022-08-16T23:49:57.793Z,19.65
2022-08-16T23:52:10.935Z,19.68
2022-08-16T23:54:37.894Z,19.61
2022-08-16T23:57:05.353Z,19.49
2022-08-16T23:59:38.041Z,19.46
